Time;durP1;ratioP1;P1;durP2;ratioP2;P2;SDS_P1;SDS_P2;PMS_P1;PMS_P2;Temp;Humidity;BMP_temperature;BMP_pressure;BME280_temperature;BME280_humidity;BME280_pressure;Samples;Min_cycle;Max_cycle;Signal;HPM_P1;HPM_P2
2023/06/15 00:01:05;;;;;;;15.57;13.93;;;;;;;;;;4908700;29;20262;-81
2023/06/15 00:03:32;;;;;;;16.70;15.02;;;;;;;;;;4904674;29;20212;-81
2023/06/15 00:06:00;;;;;;;18.77;13.80;;;;;;;;;;4901702;29;20209;-81
2023/06/15 00:08:28;;;;;;;16.27;14.63;;;;;;;;;;4902113;29;20225;-82
2023/06/15 00:10:55;;;;;;;16.38;14.80;;;;;;;;;;4898774;29;20207;-82
2023/06/15 00:13:22;;;;;;;15.00;13.57;;;;;;;;;;4902300;29;20213;-84
2023/06/15 00:15:52;;;;;;;15.95;14.30;;;;;;;;;;4901592;29;20205;-83
2023/06/15 00:18:20;;;;;;;17.05;15.02;;;;;;;;;;4902028;29;20211;-83
2023/06/15 00:20:49;;;;;;;16.45;14.88;;;;;;;;;;4907385;29;20505;-81
2023/06/15 00:23:17;;;;;;;16.00;14.55;;;;;;;;;;4900936;29;20231;-80
2023/06/15 00:25:45;;;;;;;16.40;14.82;;;;;;;;;;4902106;29;20415;-81
2023/06/15 00:28:12;;;;;;;16.70;15.10;;;;;;;;;;4896946;29;20281;-80
2023/06/15 00:30:42;;;;;;;16.90;15.20;;;;;;;;;;4900725;29;20206;-81
2023/06/15 00:33:10;;;;;;;18.27;16.48;;;;;;;;;;4902543;29;20332;-82
2023/06/15 00:35:38;;;;;;;18.40;16.05;;;;;;;;;;4900965;29;20261;-83
2023/06/15 00:38:09;;;;;;;17.15;15.60;;;;;;;;;;4904265;29;20292;-83
2023/06/15 00:40:41;;;;;;;16.70;15.20;;;;;;;;;;4904147;29;20246;-83
2023/06/15 00:43:10;;;;;;;17.88;16.08;;;;;;;;;;4903756;29;20197;-84
2023/06/15 00:45:37;;;;;;;16.80;15.02;;;;;;;;;;4904727;29;20295;-82
2023/06/15 00:48:05;;;;;;;17.95;15.82;;;;;;;;;;4908763;29;20205;-82
2023/06/15 00:50:33;;;;;;;17.55;15.85;;;;;;;;;;4902661;29;20292;-81
2023/06/15 00:53:05;;;;;;;19.80;17.60;;;;;;;;;;4915035;29;20224;-81
2023/06/15 00:55:33;;;;;;;19.45;17.67;;;;;;;;;;4905598;29;20224;-81
2023/06/15 00:58:02;;;;;;;18.27;16.10;;;;;;;;;;4901972;29;20591;-82
2023/06/15 01:00:30;;;;;;;17.42;15.77;;;;;;;;;;4899598;29;20277;-83
2023/06/15 01:02:59;;;;;;;15.95;14.35;;;;;;;;;;4901302;29;20273;-82
2023/06/15 01:05:28;;;;;;;16.92;15.32;;;;;;;;;;4902635;29;20220;-83
2023/06/15 01:07:57;;;;;;;17.23;15.63;;;;;;;;;;4901615;29;20217;-83
2023/06/15 01:10:31;;;;;;;17.52;15.82;;;;;;;;;;4904353;29;20272;-81
2023/06/15 01:13:01;;;;;;;17.52;15.88;;;;;;;;;;4906438;29;20659;-82
2023/06/15 01:15:29;;;;;;;20.77;16.45;;;;;;;;;;4906324;29;20223;-82
2023/06/15 01:18:02;;;;;;;15.95;14.32;;;;;;;;;;4905682;29;20233;-82
2023/06/15 01:20:41;;;;;;;16.85;15.05;;;;;;;;;;4906189;29;20707;-82
2023/06/15 01:23:13;;;;;;;15.70;13.98;;;;;;;;;;4909700;29;20212;-82
2023/06/15 01:25:43;;;;;;;15.40;14.00;;;;;;;;;;4905556;29;20717;-82
2023/06/15 01:28:15;;;;;;;15.40;14.00;;;;;;;;;;4905557;29;20244;-81
2023/06/15 01:30:44;;;;;;;15.07;12.43;;;;;;;;;;4905593;29;20209;-82
2023/06/15 01:33:13;;;;;;;13.47;12.17;;;;;;;;;;4906035;29;20232;-82
2023/06/15 01:35:40;;;;;;;15.98;13.90;;;;;;;;;;4905059;29;20452;-82
2023/06/15 01:38:09;;;;;;;13.43;12.20;;;;;;;;;;4905153;29;20912;-82
2023/06/15 01:40:40;;;;;;;21.33;14.07;;;;;;;;;;4904110;29;20288;-82
2023/06/15 01:43:11;;;;;;;14.82;13.20;;;;;;;;;;4911731;29;20842;-81
2023/06/15 01:45:44;;;;;;;14.17;12.80;;;;;;;;;;4908039;29;20205;-80
2023/06/15 01:48:14;;;;;;;14.57;13.13;;;;;;;;;;4904325;29;20453;-81
2023/06/15 01:50:42;;;;;;;21.50;13.20;;;;;;;;;;4909981;29;20384;-81
2023/06/15 01:53:09;;;;;;;18.55;13.30;;;;;;;;;;4913504;29;20613;-81
2023/06/15 01:55:38;;;;;;;13.30;11.65;;;;;;;;;;4907214;29;20289;-82
2023/06/15 01:58:05;;;;;;;16.13;13.48;;;;;;;;;;4906083;29;20277;-81
2023/06/15 02:00:33;;;;;;;14.13;12.63;;;;;;;;;;4915197;29;20209;-82
2023/06/15 02:03:03;;;;;;;15.07;13.48;;;;;;;;;;4902808;29;20452;-82
2023/06/15 02:05:30;;;;;;;16.67;13.07;;;;;;;;;;4907034;29;20217;-81
2023/06/15 02:07:58;;;;;;;16.35;12.65;;;;;;;;;;4913992;29;20290;-80
2023/06/15 02:10:25;;;;;;;13.60;12.23;;;;;;;;;;4910647;29;20212;-81
2023/06/15 02:12:53;;;;;;;14.35;12.40;;;;;;;;;;4913614;29;20320;-81
2023/06/15 02:15:20;;;;;;;13.73;12.20;;;;;;;;;;4917868;29;20190;-82
2023/06/15 02:17:47;;;;;;;12.90;11.50;;;;;;;;;;4926537;29;20503;-81
2023/06/15 02:20:15;;;;;;;13.40;12.02;;;;;;;;;;4911211;29;20251;-82
2023/06/15 02:22:42;;;;;;;17.42;12.43;;;;;;;;;;4905496;29;20217;-82
2023/06/15 02:25:09;;;;;;;13.93;12.68;;;;;;;;;;4906637;29;20528;-81
2023/06/15 02:27:37;;;;;;;14.32;10.48;;;;;;;;;;4906155;29;20437;-81
2023/06/15 02:30:05;;;;;;;14.40;12.90;;;;;;;;;;4913507;29;20266;-82
2023/06/15 02:32:34;;;;;;;13.75;12.38;;;;;;;;;;4909429;29;20494;-80
2023/06/15 02:35:03;;;;;;;14.02;12.63;;;;;;;;;;4904286;29;20201;-81
2023/06/15 02:37:30;;;;;;;14.20;12.60;;;;;;;;;;4904848;29;20264;-80
2023/06/15 02:39:58;;;;;;;15.00;12.00;;;;;;;;;;4904173;29;20407;-80
2023/06/15 02:42:29;;;;;;;15.10;12.10;;;;;;;;;;4904657;29;20223;-81
2023/06/15 02:44:57;;;;;;;15.23;13.77;;;;;;;;;;4904733;29;20478;-80
2023/06/15 02:47:25;;;;;;;13.60;12.05;;;;;;;;;;4908468;29;20882;-81
2023/06/15 02:49:53;;;;;;;13.05;11.65;;;;;;;;;;4904534;29;20626;-81
2023/06/15 02:52:21;;;;;;;13.25;11.35;;;;;;;;;;4897661;29;20209;-80
2023/06/15 02:54:48;;;;;;;15.33;11.57;;;;;;;;;;4902753;29;20225;-80
2023/06/15 02:57:16;;;;;;;14.05;12.68;;;;;;;;;;4901982;29;20940;-79
2023/06/15 02:59:44;;;;;;;13.30;11.90;;;;;;;;;;4899049;29;20263;-79
2023/06/15 03:02:11;;;;;;;15.15;13.32;;;;;;;;;;4901355;29;20208;-80
2023/06/15 03:04:44;;;;;;;13.65;12.48;;;;;;;;;;4902987;29;20205;-80
2023/06/15 03:07:16;;;;;;;14.30;12.80;;;;;;;;;;4911492;29;20209;-79
2023/06/15 03:09:45;;;;;;;15.57;13.07;;;;;;;;;;4908086;29;20552;-79
2023/06/15 03:12:13;;;;;;;19.48;14.02;;;;;;;;;;4910663;29;20216;-81
2023/06/15 03:14:44;;;;;;;18.60;13.32;;;;;;;;;;4905083;29;20209;-81
2023/06/15 03:17:12;;;;;;;15.63;13.85;;;;;;;;;;4905864;29;20221;-80
2023/06/15 03:19:44;;;;;;;17.88;12.70;;;;;;;;;;4917749;29;20198;-81
2023/06/15 03:22:11;;;;;;;18.00;14.35;;;;;;;;;;4919799;29;20209;-82
2023/06/15 03:24:40;;;;;;;16.48;13.57;;;;;;;;;;4914410;29;20212;-80
2023/06/15 03:27:10;;;;;;;14.60;13.05;;;;;;;;;;4910179;29;20225;-81
2023/06/15 03:29:37;;;;;;;14.15;12.75;;;;;;;;;;4912424;29;20209;-80
2023/06/15 03:32:08;;;;;;;15.55;13.88;;;;;;;;;;4916040;29;20201;-80
2023/06/15 03:34:38;;;;;;;17.75;13.80;;;;;;;;;;4916028;29;20547;-80
2023/06/15 03:37:10;;;;;;;14.77;13.30;;;;;;;;;;4904435;29;20516;-82
2023/06/15 03:39:37;;;;;;;21.03;13.87;;;;;;;;;;4903317;29;20266;-80
2023/06/15 03:42:05;;;;;;;13.80;11.80;;;;;;;;;;4911314;29;20515;-81
2023/06/15 03:44:34;;;;;;;13.13;11.83;;;;;;;;;;4907695;29;20692;-80
2023/06/15 03:47:04;;;;;;;19.98;13.90;;;;;;;;;;4905685;29;20499;-80
2023/06/15 03:49:31;;;;;;;17.08;13.90;;;;;;;;;;4906479;29;20217;-82
2023/06/15 03:51:59;;;;;;;13.70;12.50;;;;;;;;;;4903525;29;20397;-80
2023/06/15 03:54:26;;;;;;;18.13;13.50;;;;;;;;;;4906954;29;20453;-81
2023/06/15 03:56:53;;;;;;;19.63;13.73;;;;;;;;;;4906170;29;20201;-80
2023/06/15 03:59:23;;;;;;;17.42;15.25;;;;;;;;;;4907512;29;20452;-82
2023/06/15 04:01:52;;;;;;;15.18;13.15;;;;;;;;;;4905587;29;20244;-81
2023/06/15 04:04:19;;;;;;;21.03;15.50;;;;;;;;;;4907211;29;20205;-83
2023/06/15 04:06:47;;;;;;;15.53;13.97;;;;;;;;;;4903427;29;20452;-82
2023/06/15 04:09:15;;;;;;;15.90;13.37;;;;;;;;;;4906370;29;20499;-81
2023/06/15 04:11:42;;;;;;;16.77;12.40;;;;;;;;;;4907319;29;20773;-81
2023/06/15 04:14:10;;;;;;;15.50;13.90;;;;;;;;;;4906038;29;20492;-80
2023/06/15 04:16:38;;;;;;;14.17;12.40;;;;;;;;;;4904089;29;20457;-81
2023/06/15 04:19:09;;;;;;;14.03;12.63;;;;;;;;;;4907518;29;20496;-82
2023/06/15 04:21:40;;;;;;;13.57;11.87;;;;;;;;;;4901465;29;20454;-81
2023/06/15 04:24:09;;;;;;;14.63;11.90;;;;;;;;;;4903408;29;20440;-81
2023/06/15 04:26:41;;;;;;;22.73;11.97;;;;;;;;;;4901732;29;20461;-82
2023/06/15 04:29:09;;;;;;;16.37;12.37;;;;;;;;;;4895463;29;20504;-82
2023/06/15 04:31:39;;;;;;;13.70;11.13;;;;;;;;;;4902656;29;20525;-82
2023/06/15 04:34:07;;;;;;;16.07;12.00;;;;;;;;;;4904110;29;20894;-84
2023/06/15 04:36:38;;;;;;;17.17;11.50;;;;;;;;;;4902006;29;20431;-80
2023/06/15 04:39:06;;;;;;;14.27;10.90;;;;;;;;;;4904920;29;20473;-81
2023/06/15 04:41:35;;;;;;;18.40;10.73;;;;;;;;;;4906583;29;20434;-82
2023/06/15 04:44:02;;;;;;;16.27;12.33;;;;;;;;;;4907956;29;20656;-81
2023/06/15 04:46:32;;;;;;;12.70;11.27;;;;;;;;;;4910324;29;20756;-82
2023/06/15 04:49:09;;;;;;;14.63;11.00;;;;;;;;;;4913960;29;20478;-80
2023/06/15 04:51:38;;;;;;;12.70;11.47;;;;;;;;;;4903871;29;20635;-82
2023/06/15 04:54:05;;;;;;;14.83;11.63;;;;;;;;;;4909196;29;21090;-83
2023/06/15 04:56:33;;;;;;;18.97;12.70;;;;;;;;;;4910126;29;20487;-81
2023/06/15 04:59:01;;;;;;;16.77;12.53;;;;;;;;;;4912156;29;20528;-82
2023/06/15 05:01:29;;;;;;;12.50;11.40;;;;;;;;;;4915177;29;20434;-82
2023/06/15 05:04:00;;;;;;;15.47;13.90;;;;;;;;;;4903821;29;20484;-82
2023/06/15 05:06:28;;;;;;;11.87;10.67;;;;;;;;;;4908144;29;20452;-81
2023/06/15 05:08:59;;;;;;;13.47;12.03;;;;;;;;;;4915518;29;20466;-84
2023/06/15 05:11:26;;;;;;;13.87;12.37;;;;;;;;;;4910229;29;20489;-82
2023/06/15 05:14:00;;;;;;;13.80;12.40;;;;;;;;;;4906541;29;20458;-83
2023/06/15 05:16:27;;;;;;;17.33;11.97;;;;;;;;;;4905770;29;20659;-84
2023/06/15 05:18:54;;;;;;;14.63;13.13;;;;;;;;;;4906643;29;20550;-82
2023/06/15 05:21:22;;;;;;;18.50;12.53;;;;;;;;;;4907002;29;20428;-80
2023/06/15 05:23:51;;;;;;;14.27;12.77;;;;;;;;;;4902432;29;20437;-82
2023/06/15 05:26:20;;;;;;;13.83;12.53;;;;;;;;;;4913508;29;20538;-82
2023/06/15 05:28:56;;;;;;;13.97;12.63;;;;;;;;;;4904662;29;20516;-83
2023/06/15 05:31:25;;;;;;;14.20;12.33;;;;;;;;;;4905595;29;20454;-83
2023/06/15 05:33:53;;;;;;;16.43;11.90;;;;;;;;;;4905770;29;20478;-81
2023/06/15 05:36:20;;;;;;;13.83;12.17;;;;;;;;;;4905143;29;20475;-81
2023/06/15 05:39:00;;;;;;;16.83;13.73;;;;;;;;;;4902889;29;20550;-80
2023/06/15 05:41:28;;;;;;;13.87;12.67;;;;;;;;;;4910674;29;20537;-82
2023/06/15 05:43:58;;;;;;;15.33;12.57;;;;;;;;;;4905790;29;20430;-84
2023/06/15 05:46:26;;;;;;;12.73;11.43;;;;;;;;;;4907724;29;20518;-85
2023/06/15 05:48:53;;;;;;;23.83;13.90;;;;;;;;;;4908354;29;20430;-82
2023/06/15 05:51:21;;;;;;;14.33;12.90;;;;;;;;;;4914086;29;20407;-81
2023/06/15 05:53:48;;;;;;;17.93;12.20;;;;;;;;;;4922003;29;20456;-86
2023/06/15 05:56:15;;;;;;;12.17;11.00;;;;;;;;;;4920263;29;20463;-84
2023/06/15 05:58:43;;;;;;;12.60;11.27;;;;;;;;;;4915638;29;20566;-84
2023/06/15 06:01:10;;;;;;;12.87;11.47;;;;;;;;;;4918531;29;20510;-82
2023/06/15 06:03:38;;;;;;;15.17;10.97;;;;;;;;;;4907520;29;20455;-87
2023/06/15 06:06:05;;;;;;;12.20;10.97;;;;;;;;;;4904755;29;20430;-83
2023/06/15 06:08:33;;;;;;;15.43;12.20;;;;;;;;;;4912456;29;20511;-83
2023/06/15 06:11:03;;;;;;;14.10;12.70;;;;;;;;;;4915648;29;20419;-82
2023/06/15 06:13:31;;;;;;;13.27;11.90;;;;;;;;;;4910301;29;20530;-80
2023/06/15 06:16:00;;;;;;;21.17;13.30;;;;;;;;;;4919750;29;20449;-83
2023/06/15 06:18:28;;;;;;;15.43;13.97;;;;;;;;;;4903309;29;20470;-81
2023/06/15 06:20:56;;;;;;;15.30;13.53;;;;;;;;;;4912071;29;20710;-82
2023/06/15 06:23:23;;;;;;;15.60;13.03;;;;;;;;;;4899210;29;20490;-82
2023/06/15 06:25:51;;;;;;;15.87;13.40;;;;;;;;;;4902839;29;20510;-82
2023/06/15 06:28:19;;;;;;;15.33;12.10;;;;;;;;;;4902547;29;20578;-81
2023/06/15 06:30:46;;;;;;;15.27;12.90;;;;;;;;;;4905074;29;20470;-81
2023/06/15 06:33:14;;;;;;;14.47;13.07;;;;;;;;;;4907978;29;20431;-80
2023/06/15 06:35:41;;;;;;;16.90;12.03;;;;;;;;;;4902645;29;20575;-80
2023/06/15 06:38:08;;;;;;;14.70;13.33;;;;;;;;;;4905320;29;20529;-81
2023/06/15 06:40:38;;;;;;;15.50;12.60;;;;;;;;;;4908872;29;20439;-81
2023/06/15 06:43:08;;;;;;;15.37;11.97;;;;;;;;;;4899814;29;20482;-79
2023/06/15 06:45:38;;;;;;;15.63;11.20;;;;;;;;;;4903568;29;20419;-81
2023/06/15 06:48:05;;;;;;;18.70;11.90;;;;;;;;;;4898642;29;20438;-82
2023/06/15 06:50:32;;;;;;;11.73;10.53;;;;;;;;;;4902384;29;20427;-83
2023/06/15 06:53:00;;;;;;;20.20;12.60;;;;;;;;;;4903693;29;20422;-80
2023/06/15 06:55:27;;;;;;;10.93;9.93;;;;;;;;;;4897900;29;20454;-80
2023/06/15 06:58:00;;;;;;;16.37;11.33;;;;;;;;;;4900762;29;20578;-81
2023/06/15 07:00:28;;;;;;;11.80;10.70;;;;;;;;;;4898845;29;20488;-80
2023/06/15 07:02:56;;;;;;;12.47;11.27;;;;;;;;;;4900227;29;20487;-80
2023/06/15 07:05:23;;;;;;;9.80;8.90;;;;;;;;;;4904841;29;20431;-80
2023/06/15 07:07:51;;;;;;;11.00;9.13;;;;;;;;;;4911082;29;20643;-78
2023/06/15 07:10:18;;;;;;;9.93;9.03;;;;;;;;;;4914888;29;20474;-79
2023/06/15 07:12:46;;;;;;;10.90;9.90;;;;;;;;;;4906164;29;20452;-80
2023/06/15 07:15:14;;;;;;;11.20;10.20;;;;;;;;;;4895627;29;20859;-81
2023/06/15 07:17:42;;;;;;;14.40;11.23;;;;;;;;;;4903440;29;20444;-82
2023/06/15 07:20:10;;;;;;;11.63;10.47;;;;;;;;;;4903356;29;20447;-79
2023/06/15 07:22:37;;;;;;;11.00;10.00;;;;;;;;;;4901333;29;20451;-82
2023/06/15 07:25:04;;;;;;;11.27;10.27;;;;;;;;;;4898266;29;20503;-81
2023/06/15 07:27:32;;;;;;;10.47;9.57;;;;;;;;;;4901898;29;20464;-81
2023/06/15 07:30:00;;;;;;;10.07;9.17;;;;;;;;;;4900900;29;20854;-82
2023/06/15 07:32:27;;;;;;;12.80;10.23;;;;;;;;;;4896991;29;20448;-80
2023/06/15 07:34:55;;;;;;;9.33;8.40;;;;;;;;;;4899432;29;20792;-81
2023/06/15 07:37:22;;;;;;;11.13;10.13;;;;;;;;;;4897095;29;20427;-83
2023/06/15 07:39:52;;;;;;;11.27;8.73;;;;;;;;;;4895855;29;20662;-83
2023/06/15 07:42:22;;;;;;;10.20;8.43;;;;;;;;;;4898946;29;20494;-80
2023/06/15 07:44:50;;;;;;;10.20;9.20;;;;;;;;;;4897387;29;20431;-81
2023/06/15 07:47:19;;;;;;;11.17;8.23;;;;;;;;;;4898445;29;20699;-80
2023/06/15 07:49:46;;;;;;;9.90;8.87;;;;;;;;;;4896410;29;20499;-80
2023/06/15 07:52:16;;;;;;;9.27;8.37;;;;;;;;;;4902323;29;20426;-82
2023/06/15 07:54:43;;;;;;;12.47;10.37;;;;;;;;;;4899659;29;20622;-85
2023/06/15 07:57:10;;;;;;;9.70;8.93;;;;;;;;;;4901307;29;20429;-84
2023/06/15 07:59:39;;;;;;;10.10;9.30;;;;;;;;;;4903293;29;20497;-83
2023/06/15 08:02:07;;;;;;;9.00;8.17;;;;;;;;;;4902175;29;20426;-82
2023/06/15 08:04:34;;;;;;;8.93;8.23;;;;;;;;;;4902450;29;20430;-82
2023/06/15 08:07:02;;;;;;;10.13;9.10;;;;;;;;;;4902237;29;20475;-81
2023/06/15 08:09:31;;;;;;;8.30;7.50;;;;;;;;;;4905192;29;20479;-83
2023/06/15 08:12:00;;;;;;;10.23;9.23;;;;;;;;;;4905306;29;20620;-79
2023/06/15 08:14:27;;;;;;;10.60;8.47;;;;;;;;;;4906471;29;20572;-81
2023/06/15 08:16:54;;;;;;;8.60;7.80;;;;;;;;;;4905249;29;20492;-83
2023/06/15 08:19:21;;;;;;;9.43;8.00;;;;;;;;;;4909711;29;20458;-83
2023/06/15 08:21:49;;;;;;;10.30;7.93;;;;;;;;;;4908444;29;20779;-82
2023/06/15 08:24:16;;;;;;;8.70;7.90;;;;;;;;;;4907743;29;20427;-81
2023/06/15 08:26:45;;;;;;;10.53;9.47;;;;;;;;;;4905718;29;20438;-82
2023/06/15 08:29:13;;;;;;;8.50;7.80;;;;;;;;;;4905485;29;20446;-84
2023/06/15 08:31:50;;;;;;;8.90;8.03;;;;;;;;;;4902892;29;20451;-80
2023/06/15 08:34:18;;;;;;;14.10;8.67;;;;;;;;;;4910351;29;20433;-83
2023/06/15 08:36:46;;;;;;;12.47;9.70;;;;;;;;;;4905060;29;20499;-82
2023/06/15 08:39:13;;;;;;;10.07;9.00;;;;;;;;;;4905392;29;20458;-81
2023/06/15 08:41:44;;;;;;;9.10;8.30;;;;;;;;;;4899775;29;20451;-81
2023/06/15 08:44:12;;;;;;;9.93;9.13;;;;;;;;;;4908578;29;20441;-82
2023/06/15 08:46:42;;;;;;;8.47;7.60;;;;;;;;;;4903601;29;20449;-82
2023/06/15 08:49:12;;;;;;;9.03;8.20;;;;;;;;;;4901130;29;20542;-81
2023/06/15 08:51:39;;;;;;;9.07;8.17;;;;;;;;;;4906373;29;20714;-82
2023/06/15 08:54:08;;;;;;;13.23;9.93;;;;;;;;;;4903741;29;20424;-79
2023/06/15 08:56:38;;;;;;;12.07;10.00;;;;;;;;;;4909367;29;20426;-82
2023/06/15 08:59:06;;;;;;;10.07;9.10;;;;;;;;;;4904368;29;20477;-83
2023/06/15 09:01:39;;;;;;;9.50;8.50;;;;;;;;;;4910097;29;20751;-83
2023/06/15 09:04:08;;;;;;;12.80;9.20;;;;;;;;;;4905541;29;20807;-81
2023/06/15 09:06:35;;;;;;;8.97;8.07;;;;;;;;;;4902999;29;20423;-82
2023/06/15 09:09:03;;;;;;;8.97;8.07;;;;;;;;;;4906055;29;20856;-81
2023/06/15 09:11:38;;;;;;;12.97;9.53;;;;;;;;;;4904033;29;20431;-80
2023/06/15 09:14:11;;;;;;;9.60;8.60;;;;;;;;;;4907726;29;20478;-81
2023/06/15 09:16:39;;;;;;;8.90;8.20;;;;;;;;;;4906098;29;20423;-84
2023/06/15 09:19:11;;;;;;;8.20;7.50;;;;;;;;;;4906118;29;20510;-80
2023/06/15 09:21:42;;;;;;;9.87;8.87;;;;;;;;;;4904920;29;20444;-81
2023/06/15 09:24:10;;;;;;;14.33;8.30;;;;;;;;;;4906926;29;20427;-83
2023/06/15 09:26:39;;;;;;;8.40;7.70;;;;;;;;;;4908283;29;20452;-82
2023/06/15 09:29:11;;;;;;;14.90;8.30;;;;;;;;;;4907211;29;20454;-82
2023/06/15 09:31:40;;;;;;;7.60;6.90;;;;;;;;;;4917769;29;20445;-84
2023/06/15 09:34:09;;;;;;;8.60;7.47;;;;;;;;;;4920856;29;20542;-83
2023/06/15 09:36:44;;;;;;;9.53;8.33;;;;;;;;;;4911328;29;20459;-82
2023/06/15 09:39:13;;;;;;;9.97;7.93;;;;;;;;;;4909196;29;20470;-79
2023/06/15 09:42:00;;;;;;;7.53;6.87;;;;;;;;;;4903677;29;20460;-81
2023/06/15 09:44:27;;;;;;;7.37;6.60;;;;;;;;;;4896574;29;20426;-82
2023/06/15 09:46:58;;;;;;;7.97;6.90;;;;;;;;;;4917147;29;20454;-82
2023/06/15 09:49:30;;;;;;;7.27;6.67;;;;;;;;;;4907604;29;20422;-82
2023/06/15 09:52:00;;;;;;;9.50;8.40;;;;;;;;;;4906181;29;20411;-82
2023/06/15 09:54:28;;;;;;;8.50;6.27;;;;;;;;;;4906404;29;20456;-82
2023/06/15 09:56:57;;;;;;;6.67;5.97;;;;;;;;;;4906429;29;20692;-83
2023/06/15 09:59:26;;;;;;;7.53;6.93;;;;;;;;;;4910739;29;20514;-82
2023/06/15 10:01:55;;;;;;;7.43;6.67;;;;;;;;;;4919436;29;20474;-80
2023/06/15 10:04:30;;;;;;;7.10;6.40;;;;;;;;;;4909966;29;20512;-81
2023/06/15 10:07:04;;;;;;;6.57;5.93;;;;;;;;;;4904586;29;20484;-83
2023/06/15 10:09:44;;;;;;;10.13;6.40;;;;;;;;;;4903634;29;20543;-82
2023/06/15 10:12:23;;;;;;;8.37;7.67;;;;;;;;;;4902727;29;20768;-82
2023/06/15 10:14:56;;;;;;;7.00;5.70;;;;;;;;;;4901113;29;21263;-82
2023/06/15 10:17:30;;;;;;;7.93;7.13;;;;;;;;;;4904836;29;20423;-82
2023/06/15 10:19:58;;;;;;;7.00;6.50;;;;;;;;;;4901307;29;20488;-83
2023/06/15 10:22:26;;;;;;;7.67;6.00;;;;;;;;;;4904390;29;20436;-83
2023/06/15 10:24:54;;;;;;;7.30;5.40;;;;;;;;;;4905508;29;20445;-83
2023/06/15 10:27:21;;;;;;;9.73;6.63;;;;;;;;;;4902611;29;20812;-82
2023/06/15 10:30:10;;;;;;;7.97;6.53;;;;;;;;;;4904289;29;20421;-80
2023/06/15 10:33:03;;;;;;;6.60;6.13;;;;;;;;;;4906521;29;20475;-83
2023/06/15 10:35:34;;;;;;;6.20;5.60;;;;;;;;;;4886738;29;20498;-81
2023/06/15 10:38:04;;;;;;;13.03;5.60;;;;;;;;;;4905719;29;20447;-81
2023/06/15 10:40:35;;;;;;;6.43;5.93;;;;;;;;;;4901442;29;20535;-82
2023/06/15 10:43:02;;;;;;;8.10;5.97;;;;;;;;;;4903889;29;20692;-83
2023/06/15 10:45:31;;;;;;;7.50;6.20;;;;;;;;;;4902797;29;20452;-83
2023/06/15 10:48:00;;;;;;;5.97;5.57;;;;;;;;;;4907708;29;20616;-82
2023/06/15 10:50:27;;;;;;;5.60;5.10;;;;;;;;;;4904335;29;20519;-80
2023/06/15 10:52:56;;;;;;;5.90;5.40;;;;;;;;;;4899942;29;20801;-81
2023/06/15 10:55:24;;;;;;;5.20;4.70;;;;;;;;;;4903141;29;20472;-82
2023/06/15 10:58:12;;;;;;;5.60;5.17;;;;;;;;;;4903832;29;20531;-82
2023/06/15 11:00:50;;;;;;;5.43;4.93;;;;;;;;;;4901822;29;20469;-81
2023/06/15 11:03:25;;;;;;;6.50;5.73;;;;;;;;;;4904379;29;20423;-81
2023/06/15 11:06:07;;;;;;;9.13;6.10;;;;;;;;;;4902403;29;20499;-80
2023/06/15 11:08:49;;;;;;;7.83;6.07;;;;;;;;;;4897057;29;20419;-82
2023/06/15 11:11:18;;;;;;;5.13;4.73;;;;;;;;;;4907230;29;20454;-79
2023/06/15 11:14:00;;;;;;;5.60;5.13;;;;;;;;;;4908482;29;21027;-80
2023/06/15 11:16:29;;;;;;;5.83;5.43;;;;;;;;;;4913742;29;20448;-86
2023/06/15 11:18:57;;;;;;;9.33;5.90;;;;;;;;;;4902631;29;20489;-86
2023/06/15 11:21:27;;;;;;;5.90;5.50;;;;;;;;;;4900381;29;20772;-82
2023/06/15 11:23:56;;;;;;;5.17;4.77;;;;;;;;;;4906323;29;20460;-83
2023/06/15 11:26:28;;;;;;;5.07;4.77;;;;;;;;;;4900724;29;20476;-83
2023/06/15 11:28:58;;;;;;;6.20;5.60;;;;;;;;;;4898434;29;20558;-83
2023/06/15 11:31:27;;;;;;;6.10;5.60;;;;;;;;;;4888053;29;20576;-82
2023/06/15 11:33:55;;;;;;;6.33;5.80;;;;;;;;;;4903770;29;20448;-84
2023/06/15 11:36:23;;;;;;;6.23;5.50;;;;;;;;;;4899792;29;20547;-84
2023/06/15 11:38:51;;;;;;;6.40;5.80;;;;;;;;;;4902513;29;20427;-81
2023/06/15 11:41:20;;;;;;;5.80;5.23;;;;;;;;;;4901923;29;20627;-83
2023/06/15 11:43:48;;;;;;;12.20;5.90;;;;;;;;;;4897782;29;20450;-84
2023/06/15 11:46:17;;;;;;;6.70;6.00;;;;;;;;;;4900680;29;20452;-83
2023/06/15 11:49:06;;;;;;;6.07;5.60;;;;;;;;;;4897570;29;20486;-81
2023/06/15 11:51:34;;;;;;;6.23;5.60;;;;;;;;;;4899464;29;20438;-83
2023/06/15 11:54:02;;;;;;;8.20;6.20;;;;;;;;;;4892068;29;20483;-83
2023/06/15 11:56:29;;;;;;;6.97;5.30;;;;;;;;;;4895619;29;20447;-83
2023/06/15 11:58:57;;;;;;;6.40;5.30;;;;;;;;;;4901672;29;20491;-82
2023/06/15 12:01:26;;;;;;;5.67;5.20;;;;;;;;;;4898243;29;20795;-82
2023/06/15 12:03:57;;;;;;;6.57;5.97;;;;;;;;;;4902421;29;20511;-83
2023/06/15 12:06:32;;;;;;;6.60;5.90;;;;;;;;;;4901946;29;20419;-86
2023/06/15 12:09:00;;;;;;;6.80;6.30;;;;;;;;;;4901946;29;20660;-84
2023/06/15 12:11:28;;;;;;;6.03;5.37;;;;;;;;;;4901702;29;20425;-83
2023/06/15 12:14:02;;;;;;;12.97;6.27;;;;;;;;;;4901547;29;20606;-85
2023/06/15 12:16:30;;;;;;;5.53;5.03;;;;;;;;;;4902942;29;20456;-85
2023/06/15 12:18:58;;;;;;;6.30;5.80;;;;;;;;;;4902153;29;20535;-81
2023/06/15 12:21:33;;;;;;;6.40;5.10;;;;;;;;;;4900342;29;20495;-80
2023/06/15 12:24:00;;;;;;;6.60;6.10;;;;;;;;;;4898325;29;20433;-83
2023/06/15 12:26:32;;;;;;;7.53;6.83;;;;;;;;;;4901706;29;20465;-83
2023/06/15 12:29:00;;;;;;;6.27;5.77;;;;;;;;;;4905606;29;20460;-83
2023/06/15 12:31:35;;;;;;;6.93;6.00;;;;;;;;;;4913707;29;20643;-83
2023/06/15 12:34:09;;;;;;;6.00;5.60;;;;;;;;;;4902249;29;20502;-81
2023/06/15 12:36:38;;;;;;;6.03;5.53;;;;;;;;;;4892429;29;20452;-82
2023/06/15 12:39:08;;;;;;;9.37;6.20;;;;;;;;;;4897403;29;20419;-82
2023/06/15 12:41:41;;;;;;;13.90;7.63;;;;;;;;;;4900695;29;20543;-82
2023/06/15 12:44:08;;;;;;;8.63;5.93;;;;;;;;;;4902041;29;20507;-82
2023/06/15 12:46:40;;;;;;;6.30;5.80;;;;;;;;;;4901959;29;20512;-84
2023/06/15 12:49:08;;;;;;;10.20;5.37;;;;;;;;;;4904307;29;20422;-80
2023/06/15 12:51:36;;;;;;;6.57;5.97;;;;;;;;;;4902415;29;20448;-83
2023/06/15 12:54:04;;;;;;;6.70;6.07;;;;;;;;;;4899815;29;20452;-83
2023/06/15 12:56:33;;;;;;;7.37;6.03;;;;;;;;;;4904440;29;20451;-84
2023/06/15 12:59:00;;;;;;;6.63;6.13;;;;;;;;;;4912324;29;20446;-81
2023/06/15 13:01:28;;;;;;;7.07;6.47;;;;;;;;;;4919722;29;20451;-84
2023/06/15 13:03:56;;;;;;;6.37;5.97;;;;;;;;;;4917830;29;20432;-82
2023/06/15 13:06:23;;;;;;;5.60;5.20;;;;;;;;;;4919011;29;20451;-80
2023/06/15 13:08:51;;;;;;;7.00;6.40;;;;;;;;;;4921594;29;20446;-82
2023/06/15 13:11:18;;;;;;;6.63;5.97;;;;;;;;;;4916083;29;20443;-82
2023/06/15 13:13:46;;;;;;;7.20;5.20;;;;;;;;;;4907529;29;20452;-82
2023/06/15 13:16:13;;;;;;;6.73;6.23;;;;;;;;;;4913086;29;20488;-82
2023/06/15 13:18:40;;;;;;;5.73;5.33;;;;;;;;;;4913475;29;20527;-86
2023/06/15 13:21:08;;;;;;;9.83;5.73;;;;;;;;;;4910325;29;20621;-85
2023/06/15 13:23:35;;;;;;;8.80;5.73;;;;;;;;;;4914717;29;20446;-84
2023/06/15 13:26:05;;;;;;;6.13;5.63;;;;;;;;;;4903494;29;20542;-82
2023/06/15 13:28:32;;;;;;;6.37;5.77;;;;;;;;;;4900566;29;20457;-83
2023/06/15 13:31:00;;;;;;;6.60;6.00;;;;;;;;;;4898876;29;20525;-82
2023/06/15 13:33:28;;;;;;;6.10;5.60;;;;;;;;;;4901165;29;20617;-84
2023/06/15 13:35:57;;;;;;;7.93;6.00;;;;;;;;;;4905465;29;20438;-80
2023/06/15 13:38:24;;;;;;;6.53;5.93;;;;;;;;;;4899238;29;20429;-83
2023/06/15 13:40:51;;;;;;;10.00;6.30;;;;;;;;;;4904668;29;20494;-78
2023/06/15 13:43:19;;;;;;;6.13;5.63;;;;;;;;;;4896823;29;20463;-83
2023/06/15 13:45:46;;;;;;;6.17;5.60;;;;;;;;;;4903305;29;20419;-84
2023/06/15 13:48:14;;;;;;;6.73;6.10;;;;;;;;;;4898241;29;20448;-82
2023/06/15 13:50:41;;;;;;;6.53;6.13;;;;;;;;;;4903644;29;20966;-84
2023/06/15 13:53:09;;;;;;;7.13;6.43;;;;;;;;;;4905353;29;20471;-83
2023/06/15 13:55:36;;;;;;;8.53;7.33;;;;;;;;;;4903339;29;20423;-80
2023/06/15 13:58:04;;;;;;;10.93;6.50;;;;;;;;;;4900642;29;20547;-80
2023/06/15 14:00:31;;;;;;;7.10;6.40;;;;;;;;;;4904482;29;20487;-81
2023/06/15 14:03:04;;;;;;;12.10;7.07;;;;;;;;;;4898541;29;20708;-82
2023/06/15 14:05:32;;;;;;;6.20;5.70;;;;;;;;;;4905355;29;20448;-84
2023/06/15 14:08:00;;;;;;;8.73;6.80;;;;;;;;;;4904197;29;20664;-82
2023/06/15 14:10:27;;;;;;;11.43;6.80;;;;;;;;;;4904957;29;20467;-82
2023/06/15 14:12:55;;;;;;;7.07;6.47;;;;;;;;;;4902968;29;20448;-83
2023/06/15 14:15:22;;;;;;;9.53;6.57;;;;;;;;;;4904353;29;20552;-82
2023/06/15 14:17:49;;;;;;;14.63;6.20;;;;;;;;;;4902374;29;20448;-80
2023/06/15 14:20:17;;;;;;;9.10;6.03;;;;;;;;;;4902590;29;20521;-81
2023/06/15 14:22:45;;;;;;;7.03;6.40;;;;;;;;;;4903012;29;20520;-85
2023/06/15 14:25:12;;;;;;;6.60;6.10;;;;;;;;;;4907597;29;20472;-82
2023/06/15 14:27:47;;;;;;;6.60;6.00;;;;;;;;;;4902030;29;20468;-85
2023/06/15 14:30:15;;;;;;;7.00;6.40;;;;;;;;;;4900235;29;20512;-83
2023/06/15 14:32:43;;;;;;;6.50;6.00;;;;;;;;;;4896870;29;20480;-83
2023/06/15 14:35:10;;;;;;;6.60;6.10;;;;;;;;;;4900824;29;20427;-82
2023/06/15 14:37:38;;;;;;;7.90;6.80;;;;;;;;;;4904577;29;20454;-83
2023/06/15 14:40:06;;;;;;;6.63;5.90;;;;;;;;;;4898367;29;20467;-81